Time;durP1;ratioP1;P1;durP2;ratioP2;P2;SDS_P1;SDS_P2;PMS_P1;PMS_P2;Temp;Humidity;BMP_temperature;BMP_pressure;BME280_temperature;BME280_humidity;BME280_pressure;Samples;Min_cycle;Max_cycle;Signal;HPM_P1;HPM_P2
2022/03/22 00:01:24;;;;;;;11.97;7.90;;;1.90;99.90;;;;;;5072604;28;20610;-79
2022/03/22 00:03:50;;;;;;;11.70;8.33;;;1.80;99.90;;;;;;5071907;28;20205;-82
2022/03/22 00:06:18;;;;;;;12.90;8.93;;;1.80;99.90;;;;;;5072801;28;20184;-82
2022/03/22 00:08:44;;;;;;;12.20;8.83;;;1.80;99.90;;;;;;5082251;28;20224;-82
2022/03/22 00:11:09;;;;;;;12.00;8.17;;;1.70;99.90;;;;;;5071989;28;20681;-83
2022/03/22 00:13:35;;;;;;;12.00;8.17;;;1.80;99.90;;;;;;5071703;28;20285;-81
2022/03/22 00:16:01;;;;;;;11.97;8.87;;;1.80;99.90;;;;;;5071564;28;20264;-82
2022/03/22 00:18:27;;;;;;;11.97;8.07;;;1.90;99.90;;;;;;5071898;28;20192;-84
2022/03/22 00:20:53;;;;;;;11.97;8.57;;;1.90;99.90;;;;;;5069697;28;20182;-83
2022/03/22 00:23:21;;;;;;;12.30;8.53;;;2.00;99.90;;;;;;5080877;28;20206;-80
2022/03/22 00:25:47;;;;;;;11.93;8.43;;;1.90;99.90;;;;;;5070881;28;20197;-84
2022/03/22 00:28:13;;;;;;;11.30;8.60;;;1.90;99.90;;;;;;5070287;28;20173;-80
2022/03/22 00:30:39;;;;;;;12.00;8.50;;;1.90;99.90;;;;;;5071525;28;20231;-83
2022/03/22 00:33:07;;;;;;;15.13;9.30;;;1.80;99.90;;;;;;5071325;28;20290;-83
2022/03/22 00:35:38;;;;;;;13.80;7.97;;;1.70;99.90;;;;;;5071133;28;20181;-84
2022/03/22 00:38:08;;;;;;;13.23;8.47;;;1.60;99.90;;;;;;5069803;28;20177;-83
2022/03/22 00:40:34;;;;;;;12.30;8.47;;;1.80;99.90;;;;;;5079681;28;20190;-83
2022/03/22 00:43:00;;;;;;;13.87;9.23;;;1.70;99.90;;;;;;5068529;28;20201;-83
2022/03/22 00:45:28;;;;;;;10.70;8.27;;;1.60;99.90;;;;;;5069856;28;21217;-82
2022/03/22 00:47:55;;;;;;;15.93;8.60;;;1.60;99.90;;;;;;5069823;28;20185;-81
2022/03/22 00:50:23;;;;;;;13.27;9.03;;;1.70;99.90;;;;;;5069860;28;20698;-79
2022/03/22 00:52:48;;;;;;;12.63;8.30;;;1.70;99.90;;;;;;5070749;28;20241;-81
2022/03/22 00:55:14;;;;;;;14.30;9.07;;;1.60;99.90;;;;;;5070859;28;20273;-82
2022/03/22 00:57:41;;;;;;;12.07;8.13;;;1.60;99.90;;;;;;5070731;28;20184;-82
2022/03/22 01:00:10;;;;;;;12.57;8.50;;;1.50;99.90;;;;;;5080280;28;20188;-81
2022/03/22 01:02:40;;;;;;;11.30;8.73;;;1.60;99.90;;;;;;5063295;28;20220;-81
2022/03/22 01:05:14;;;;;;;12.93;7.90;;;1.70;99.90;;;;;;5081789;28;20251;-81
2022/03/22 01:07:45;;;;;;;12.30;8.40;;;1.70;99.90;;;;;;5080199;28;20195;-80
2022/03/22 01:10:12;;;;;;;11.93;7.97;;;1.60;99.90;;;;;;5070085;28;20205;-79
2022/03/22 01:12:39;;;;;;;11.93;8.27;;;1.60;99.90;;;;;;5082761;28;20659;-81
2022/03/22 01:15:15;;;;;;;13.67;8.80;;;1.50;99.90;;;;;;5080126;28;20260;-81
2022/03/22 01:17:44;;;;;;;12.53;8.93;;;1.60;99.90;;;;;;5076564;28;20685;-79
2022/03/22 01:20:11;;;;;;;12.30;8.77;;;1.60;99.90;;;;;;5081174;28;20181;-80
2022/03/22 01:22:38;;;;;;;11.40;8.03;;;1.50;99.90;;;;;;5069441;28;20223;-81
2022/03/22 01:25:07;;;;;;;13.07;8.70;;;1.50;99.90;;;;;;5068615;28;20205;-80
2022/03/22 01:27:33;;;;;;;13.80;9.37;;;1.40;99.90;;;;;;5068754;28;20305;-82
2022/03/22 01:29:59;;;;;;;12.97;8.63;;;1.40;99.90;;;;;;5068496;28;20213;-79
2022/03/22 01:32:25;;;;;;;12.03;8.67;;;1.30;99.90;;;;;;5068195;28;20195;-80
2022/03/22 01:34:51;;;;;;;13.27;8.57;;;1.30;99.90;;;;;;5078580;28;20205;-80
2022/03/22 01:37:17;;;;;;;13.03;9.10;;;1.40;99.90;;;;;;5066947;28;20177;-79
2022/03/22 01:39:42;;;;;;;12.87;8.77;;;1.30;99.90;;;;;;5065995;28;20185;-79
2022/03/22 01:42:08;;;;;;;14.33;8.57;;;1.20;99.90;;;;;;5065534;28;20557;-78
2022/03/22 01:44:34;;;;;;;12.27;8.27;;;1.20;99.90;;;;;;5065950;28;20291;-78
2022/03/22 01:47:02;;;;;;;13.40;8.67;;;1.10;99.90;;;;;;5077085;28;20643;-79
2022/03/22 01:49:28;;;;;;;15.97;9.20;;;1.20;99.90;;;;;;5066586;28;20622;-79
2022/03/22 01:51:55;;;;;;;12.73;8.20;;;1.10;99.90;;;;;;5066658;28;20181;-81
2022/03/22 01:54:21;;;;;;;12.67;9.50;;;1.10;99.90;;;;;;5077707;28;20254;-78
2022/03/22 01:56:46;;;;;;;14.37;9.13;;;1.10;99.90;;;;;;5077061;28;20610;-78
2022/03/22 01:59:12;;;;;;;13.13;9.33;;;1.10;99.90;;;;;;5066540;28;20182;-80
2022/03/22 02:07:08;;;;;;;12.40;9.07;;;1.00;99.90;;;;;;5077029;28;20267;-78
2022/03/22 02:09:33;;;;;;;16.07;9.20;;;1.00;99.90;;;;;;5073159;28;20263;-79
2022/03/22 02:11:59;;;;;;;12.77;8.40;;;1.00;99.90;;;;;;5075272;28;20185;-80
2022/03/22 02:14:26;;;;;;;14.50;9.13;;;1.00;99.90;;;;;;5076845;28;20203;-79
2022/03/22 02:16:52;;;;;;;13.90;8.90;;;1.00;99.90;;;;;;5080880;28;20181;-80
2022/03/22 02:19:17;;;;;;;14.37;8.77;;;1.00;99.90;;;;;;5078254;28;20855;-82
2022/03/22 02:21:44;;;;;;;12.10;8.87;;;0.90;99.90;;;;;;5068154;28;20185;-80
2022/03/22 02:24:10;;;;;;;14.17;8.83;;;0.90;99.90;;;;;;5078298;28;20409;-80
2022/03/22 02:26:38;;;;;;;13.00;8.33;;;0.90;99.90;;;;;;5079139;28;20921;-80
2022/03/22 02:29:05;;;;;;;14.17;9.40;;;1.00;99.90;;;;;;5076698;28;20243;-80
2022/03/22 02:31:32;;;;;;;14.00;9.50;;;1.00;99.90;;;;;;5076228;28;20181;-82
2022/03/22 02:33:58;;;;;;;13.07;8.90;;;1.00;99.90;;;;;;5067750;28;20232;-80
2022/03/22 02:36:24;;;;;;;14.37;9.13;;;1.00;99.90;;;;;;5068881;28;20177;-81
2022/03/22 02:38:51;;;;;;;15.47;9.73;;;0.90;99.90;;;;;;5060544;28;20192;-80
2022/03/22 02:41:22;;;;;;;14.83;9.33;;;0.90;99.90;;;;;;5068332;28;20185;-81
2022/03/22 02:43:50;;;;;;;16.73;9.37;;;0.90;99.90;;;;;;5066893;28;20208;-81
2022/03/22 02:46:15;;;;;;;14.43;9.50;;;0.80;99.90;;;;;;5067227;28;20277;-79
2022/03/22 02:48:42;;;;;;;13.97;9.37;;;0.70;99.90;;;;;;5068505;28;20306;-79
2022/03/22 02:51:08;;;;;;;17.63;10.23;;;0.80;99.90;;;;;;5067730;28;20716;-82
2022/03/22 02:53:34;;;;;;;13.40;9.67;;;0.70;99.90;;;;;;5079808;28;20280;-81
2022/03/22 02:56:01;;;;;;;17.00;9.17;;;0.80;99.90;;;;;;5068004;28;20275;-79
2022/03/22 02:58:27;;;;;;;13.37;9.67;;;0.80;99.90;;;;;;5067230;28;20205;-82
2022/03/22 03:00:53;;;;;;;13.33;10.00;;;0.80;99.90;;;;;;5067576;28;20189;-80
2022/03/22 03:03:21;;;;;;;12.63;9.17;;;0.70;99.90;;;;;;5077027;28;20322;-79
2022/03/22 03:05:48;;;;;;;14.47;9.70;;;0.70;99.90;;;;;;5078969;28;20805;-79
2022/03/22 03:08:15;;;;;;;15.73;9.80;;;0.60;99.90;;;;;;5077120;28;20257;-79
2022/03/22 03:10:41;;;;;;;13.10;9.80;;;0.60;99.90;;;;;;5068084;28;20232;-81
2022/03/22 03:13:07;;;;;;;14.40;9.20;;;0.60;99.90;;;;;;5077681;28;20216;-80
2022/03/22 03:15:33;;;;;;;13.27;8.90;;;0.60;99.90;;;;;;5068110;28;20257;-80
2022/03/22 03:17:59;;;;;;;14.80;10.47;;;0.50;99.90;;;;;;5067093;28;20188;-78
2022/03/22 03:20:25;;;;;;;19.83;9.47;;;0.50;99.90;;;;;;5066491;28;20728;-78
2022/03/22 03:22:51;;;;;;;17.00;10.63;;;0.50;99.90;;;;;;5067018;28;20593;-81
2022/03/22 03:25:18;;;;;;;13.87;9.60;;;0.50;99.90;;;;;;5067375;28;20207;-81
2022/03/22 03:27:44;;;;;;;13.33;9.43;;;0.40;99.90;;;;;;5077316;28;20210;-78
2022/03/22 03:30:10;;;;;;;13.93;9.70;;;0.50;99.90;;;;;;5077907;28;20683;-81
2022/03/22 03:32:35;;;;;;;14.73;9.13;;;0.40;99.90;;;;;;5078388;28;20174;-82
2022/03/22 03:35:01;;;;;;;15.03;9.03;;;0.50;99.90;;;;;;5066469;28;20289;-80
2022/03/22 03:37:29;;;;;;;15.53;9.90;;;0.40;99.90;;;;;;5066710;28;20610;-80
2022/03/22 03:39:55;;;;;;;14.97;9.93;;;0.30;99.90;;;;;;5065975;28;20663;-80
2022/03/22 03:42:20;;;;;;;16.70;10.40;;;0.30;99.90;;;;;;5066505;28;20259;-80
2022/03/22 03:47:30;;;;;;;13.67;9.43;;;0.20;99.90;;;;;;5077072;28;20712;-79
2022/03/22 03:50:01;;;;;;;14.80;9.90;;;0.10;99.90;;;;;;5066745;28;20205;-81
2022/03/22 03:52:29;;;;;;;13.87;10.07;;;0.10;99.90;;;;;;5065950;28;20178;-79
2022/03/22 03:54:56;;;;;;;14.77;10.40;;;0.00;99.90;;;;;;5067023;28;20197;-79
2022/03/22 03:57:23;;;;;;;14.93;9.73;;;0.00;99.90;;;;;;5069708;28;20184;-78
2022/03/22 03:59:49;;;;;;;15.40;10.77;;;0.10;99.90;;;;;;5070440;28;20213;-81
2022/03/22 04:02:16;;;;;;;14.17;9.97;;;0.00;99.90;;;;;;5078941;28;20346;-80
2022/03/22 04:04:42;;;;;;;16.43;10.97;;;0.00;99.90;;;;;;5075377;28;20270;-79
2022/03/22 04:07:09;;;;;;;17.97;11.30;;;;;;;;;;5087039;28;20595;-79
2022/03/22 04:09:36;;;;;;;15.83;10.33;;;-0.10;99.90;;;;;;5070675;28;20212;-80
2022/03/22 04:12:02;;;;;;;14.90;10.07;;;-0.20;99.90;;;;;;5070209;28;20185;-78
2022/03/22 04:14:28;;;;;;;14.37;9.93;;;-0.20;99.90;;;;;;5079489;28;20818;-79
2022/03/22 04:16:56;;;;;;;16.13;10.20;;;-0.10;99.90;;;;;;5079931;28;20276;-79
2022/03/22 04:19:22;;;;;;;15.13;10.30;;;-0.10;99.90;;;;;;5069048;28;20276;-77
2022/03/22 04:21:48;;;;;;;18.33;10.73;;;-0.20;99.90;;;;;;5068673;28;20182;-79
2022/03/22 04:24:14;;;;;;;16.20;10.80;;;-0.10;99.90;;;;;;5064660;28;20274;-82
2022/03/22 04:26:43;;;;;;;20.93;11.40;;;-0.10;99.90;;;;;;5072084;28;20658;-79
2022/03/22 04:34:42;;;;;;;16.80;10.83;;;-0.30;99.90;;;;;;5077606;28;20236;-78
2022/03/22 04:37:10;;;;;;;15.20;9.87;;;-0.30;99.90;;;;;;5073460;28;20181;-79
2022/03/22 04:39:36;;;;;;;17.60;11.33;;;-0.30;99.90;;;;;;5067185;28;20235;-82
2022/03/22 04:42:02;;;;;;;16.40;10.63;;;-0.20;99.90;;;;;;5065873;28;20860;-78
2022/03/22 04:44:28;;;;;;;15.83;10.57;;;-0.20;99.90;;;;;;5077889;28;20205;-78
2022/03/22 04:46:54;;;;;;;15.30;10.20;;;-0.30;99.90;;;;;;5065433;28;20222;-77
2022/03/22 04:49:20;;;;;;;15.07;10.67;;;-0.30;99.90;;;;;;5065445;28;20220;-78
2022/03/22 04:57:15;;;;;;;18.50;11.90;;;-0.30;99.90;;;;;;5066997;28;20392;-79
2022/03/22 04:59:42;;;;;;;16.03;10.83;;;-0.30;99.90;;;;;;5067051;28;20211;-81
2022/03/22 05:02:08;;;;;;;15.17;10.37;;;-0.30;99.90;;;;;;5066127;28;20197;-79
2022/03/22 05:04:34;;;;;;;15.90;10.93;;;-0.40;99.90;;;;;;5068206;28;20577;-79
2022/03/22 05:06:59;;;;;;;17.30;11.33;;;-0.20;99.90;;;;;;5065959;28;20713;-81
2022/03/22 05:09:25;;;;;;;16.27;10.03;;;-0.30;99.90;;;;;;5082073;28;20628;-76
2022/03/22 05:11:51;;;;;;;14.27;10.17;;;-0.30;99.90;;;;;;5066234;28;20204;-79
2022/03/22 05:14:17;;;;;;;16.60;10.40;;;-0.40;99.90;;;;;;5072766;28;20399;-78
2022/03/22 05:16:45;;;;;;;16.10;10.63;;;-0.40;99.90;;;;;;5065753;28;20181;-77
2022/03/22 05:19:12;;;;;;;17.87;10.83;;;-0.40;99.90;;;;;;5070142;28;20621;-82
2022/03/22 05:21:38;;;;;;;16.13;11.17;;;-0.40;99.90;;;;;;5064965;28;20456;-77
2022/03/22 05:24:04;;;;;;;15.77;10.17;;;-0.30;99.90;;;;;;5064654;28;20216;-77
2022/03/22 05:26:29;;;;;;;17.50;11.50;;;-0.30;99.90;;;;;;5066767;28;20924;-77
2022/03/22 05:28:55;;;;;;;16.73;10.87;;;-0.30;99.90;;;;;;5064568;28;20633;-77
2022/03/22 05:31:21;;;;;;;16.43;10.83;;;-0.30;99.90;;;;;;5065881;28;20181;-76
2022/03/22 05:33:48;;;;;;;17.20;11.37;;;-0.30;99.90;;;;;;5063491;28;20584;-77
2022/03/22 05:36:14;;;;;;;17.97;10.90;;;-0.20;99.90;;;;;;5072937;28;20198;-76
2022/03/22 05:38:39;;;;;;;17.77;10.60;;;-0.10;99.90;;;;;;5069792;28;20649;-80
2022/03/22 05:41:07;;;;;;;16.77;10.60;;;0.00;99.90;;;;;;5063828;28;20534;-76
2022/03/22 05:43:32;;;;;;;16.27;10.83;;;0.10;99.90;;;;;;5072258;28;20287;-79
2022/03/22 05:45:59;;;;;;;19.60;12.03;;;0.10;99.90;;;;;;5069990;28;20606;-79
2022/03/22 05:48:26;;;;;;;14.57;10.43;;;0.10;99.90;;;;;;5071732;28;20687;-80
2022/03/22 05:50:51;;;;;;;16.73;10.87;;;0.10;99.90;;;;;;5065754;28;20205;-77
2022/03/22 05:53:17;;;;;;;15.57;10.60;;;0.10;99.90;;;;;;5062914;28;20205;-78
2022/03/22 05:55:43;;;;;;;17.97;11.30;;;0.10;99.90;;;;;;5066477;28;20538;-77
2022/03/22 05:58:09;;;;;;;17.97;11.23;;;0.20;99.90;;;;;;5074360;28;20181;-76
2022/03/22 06:00:35;;;;;;;16.53;11.27;;;0.20;99.90;;;;;;5079267;28;20674;-78
2022/03/22 06:03:01;;;;;;;16.87;10.27;;;0.40;99.90;;;;;;5062685;28;20209;-80
2022/03/22 06:05:30;;;;;;;17.77;11.30;;;0.40;99.90;;;;;;5070484;28;20254;-76
2022/03/22 06:07:56;;;;;;;15.30;10.67;;;0.40;99.90;;;;;;5066427;28;20189;-79
2022/03/22 06:10:22;;;;;;;18.23;10.53;;;0.40;99.90;;;;;;5063056;28;20923;-80
2022/03/22 06:12:51;;;;;;;15.23;11.17;;;0.40;99.90;;;;;;5063112;28;20322;-76
2022/03/22 06:15:22;;;;;;;16.30;11.57;;;0.50;99.90;;;;;;5073563;28;20180;-79
2022/03/22 06:18:11;;;;;;;17.27;11.07;;;0.60;99.90;;;;;;5062949;28;20219;-78
2022/03/22 06:20:39;;;;;;;19.00;11.43;;;0.70;99.90;;;;;;5070871;28;20240;-78
2022/03/22 06:23:06;;;;;;;15.87;11.13;;;0.70;99.90;;;;;;5061789;28;20233;-76
2022/03/22 06:25:34;;;;;;;17.87;11.17;;;0.80;99.90;;;;;;5071560;28;20197;-80
2022/03/22 06:28:00;;;;;;;18.07;11.10;;;0.90;99.90;;;;;;5061583;28;20416;-79
2022/03/22 06:30:27;;;;;;;17.97;11.90;;;1.00;99.90;;;;;;5062476;28;20274;-78
2022/03/22 06:32:54;;;;;;;19.73;12.13;;;1.10;99.90;;;;;;5064359;28;20189;-77
2022/03/22 06:35:31;;;;;;;17.60;11.33;;;1.10;99.90;;;;;;5061716;28;20720;-79
2022/03/22 06:37:59;;;;;;;17.23;12.13;;;1.10;99.90;;;;;;5071809;28;20221;-78
2022/03/22 06:40:29;;;;;;;20.33;12.23;;;1.20;99.90;;;;;;5066819;28;20268;-77
2022/03/22 06:42:56;;;;;;;19.17;11.37;;;1.30;99.90;;;;;;5069226;28;20566;-82
2022/03/22 06:45:22;;;;;;;16.07;11.33;;;1.40;99.90;;;;;;5070436;28;20716;-80
2022/03/22 06:47:48;;;;;;;17.87;12.00;;;1.60;99.90;;;;;;5067778;28;20721;-78
2022/03/22 06:50:16;;;;;;;18.77;11.60;;;1.70;99.90;;;;;;5069668;28;20296;-78
2022/03/22 06:52:42;;;;;;;16.67;11.37;;;1.80;99.90;;;;;;5069421;28;20194;-77
2022/03/22 06:55:09;;;;;;;16.47;10.90;;;2.10;99.90;;;;;;5066529;28;20190;-79
2022/03/22 06:57:36;;;;;;;19.07;11.47;;;2.30;99.90;;;;;;5064871;28;20211;-80
2022/03/22 07:00:08;;;;;;;15.97;10.50;;;2.50;99.90;;;;;;5064744;28;20197;-79
2022/03/22 07:02:35;;;;;;;17.37;11.10;;;2.70;99.90;;;;;;5064118;28;20265;-78
2022/03/22 07:05:02;;;;;;;16.87;10.20;;;2.80;99.90;;;;;;5076869;28;20319;-75
2022/03/22 07:07:27;;;;;;;18.53;11.07;;;3.00;99.90;;;;;;5064982;28;20193;-81
2022/03/22 07:09:53;;;;;;;15.30;10.53;;;3.10;99.90;;;;;;5069010;28;20300;-78
2022/03/22 07:12:19;;;;;;;13.80;10.57;;;3.30;99.90;;;;;;5064264;28;20184;-80
2022/03/22 07:14:44;;;;;;;15.70;10.90;;;3.40;99.90;;;;;;5061762;28;20239;-81
2022/03/22 07:17:10;;;;;;;16.67;11.30;;;3.50;99.90;;;;;;5064588;28;20411;-78
2022/03/22 07:19:37;;;;;;;16.33;10.20;;;3.70;99.90;;;;;;5060634;28;20189;-78
2022/03/22 07:22:04;;;;;;;13.03;9.73;;;3.90;99.90;;;;;;5060461;28;20213;-77
2022/03/22 07:24:30;;;;;;;15.47;10.63;;;4.10;99.90;;;;;;5068537;28;20213;-78
2022/03/22 07:26:55;;;;;;;15.70;10.27;;;4.30;99.90;;;;;;5064265;28;20467;-78
2022/03/22 07:29:21;;;;;;;14.43;10.37;;;4.50;99.90;;;;;;5061757;28;20296;-77
2022/03/22 07:31:47;;;;;;;16.60;11.00;;;4.70;99.90;;;;;;5076572;28;20557;-79
2022/03/22 07:34:15;;;;;;;16.50;10.27;;;4.90;99.90;;;;;;5064275;28;20212;-78
2022/03/22 07:36:42;;;;;;;16.97;10.33;;;5.20;99.90;;;;;;5065099;28;20208;-79
2022/03/22 07:39:08;;;;;;;14.83;10.17;;;5.30;99.90;;;;;;5065067;28;20610;-79
2022/03/22 07:41:36;;;;;;;15.20;10.73;;;5.60;99.90;;;;;;5076497;28;20471;-77
2022/03/22 07:44:03;;;;;;;16.63;11.03;;;5.60;99.90;;;;;;5065807;28;20208;-80
2022/03/22 07:46:28;;;;;;;18.10;11.00;;;5.60;99.90;;;;;;5072597;28;20194;-75
2022/03/22 07:48:54;;;;;;;16.80;11.00;;;5.70;99.90;;;;;;5067490;28;20713;-76
2022/03/22 07:54:04;;;;;;;15.43;10.17;;;5.80;99.90;;;;;;5077173;28;20220;-79
2022/03/22 07:56:30;;;;;;;17.67;10.27;;;6.00;99.90;;;;;;5077427;28;20209;-80
2022/03/22 07:58:57;;;;;;;16.13;10.30;;;6.20;99.90;;;;;;5089941;28;20204;-83
2022/03/22 08:01:23;;;;;;;14.20;10.37;;;6.40;99.90;;;;;;5066808;28;20181;-83
2022/03/22 08:03:48;;;;;;;16.37;11.10;;;6.70;99.90;;;;;;5071007;28;20754;-83
2022/03/22 08:06:14;;;;;;;16.70;10.20;;;6.90;99.90;;;;;;5069867;28;20588;-84
2022/03/22 08:08:43;;;;;;;14.23;9.80;;;7.20;99.90;;;;;;5065516;28;20197;-85
2022/03/22 08:11:09;;;;;;;16.80;9.53;;;7.30;99.90;;;;;;5066279;28;20451;-84
2022/03/22 08:13:38;;;;;;;13.70;10.00;;;7.40;99.90;;;;;;5067313;28;20208;-83
2022/03/22 08:16:05;;;;;;;13.33;9.67;;;7.50;99.90;;;;;;5075235;28;20185;-83
2022/03/22 08:18:31;;;;;;;13.40;9.37;;;7.70;99.90;;;;;;5072869;28;20182;-83
2022/03/22 08:20:56;;;;;;;12.47;9.23;;;7.90;99.90;;;;;;5074998;28;20204;-82
2022/03/22 08:23:22;;;;;;;16.17;9.87;;;8.10;99.90;;;;;;5065141;28;20250;-81
2022/03/22 08:25:50;;;;;;;14.70;10.10;;;8.40;99.90;;;;;;5066584;28;20200;-83
2022/03/22 08:28:17;;;;;;;13.23;9.17;;;8.50;99.90;;;;;;5067106;28;20188;-83
2022/03/22 08:30:43;;;;;;;15.07;10.67;;;8.80;99.90;;;;;;5065688;28;20213;-83
2022/03/22 08:33:10;;;;;;;15.07;10.30;;;9.00;99.90;;;;;;5066804;28;20282;-80
2022/03/22 08:35:41;;;;;;;13.80;10.10;;;9.20;99.90;;;;;;5065731;28;20670;-78
2022/03/22 08:38:08;;;;;;;13.10;9.70;;;9.40;99.90;;;;;;5075028;28;20181;-76
2022/03/22 08:40:34;;;;;;;19.30;10.33;;;9.50;99.90;;;;;;5079532;28;20196;-76
2022/03/22 08:43:02;;;;;;;12.17;9.43;;;9.70;99.90;;;;;;5071466;28;20239;-80
2022/03/22 08:45:27;;;;;;;14.53;10.17;;;9.80;99.90;;;;;;5067935;28;20205;-77
2022/03/22 08:47:54;;;;;;;12.53;10.20;;;9.80;99.90;;;;;;5071378;28;20616;-83
2022/03/22 08:50:22;;;;;;;14.83;10.13;;;10.00;99.90;;;;;;5068194;28;20220;-80
2022/03/22 08:52:49;;;;;;;13.10;10.43;;;10.10;99.90;;;;;;5078554;28;20178;-82
2022/03/22 08:55:17;;;;;;;15.13;11.10;;;10.40;99.90;;;;;;5062737;28;20189;-79
2022/03/22 08:57:44;;;;;;;15.57;11.00;;;10.40;99.90;;;;;;5072566;28;20181;-79
2022/03/22 09:00:11;;;;;;;15.57;11.47;;;10.50;99.90;;;;;;5066538;28;20215;-79
2022/03/22 09:02:42;;;;;;;12.90;10.00;;;10.50;99.90;;;;;;5066316;28;20184;-78
2022/03/22 09:07:58;;;;;;;15.93;10.53;;;10.70;99.90;;;;;;5076257;28;20224;-78
2022/03/22 09:10:25;;;;;;;15.53;11.83;;;10.90;99.90;;;;;;5076203;28;20228;-78
2022/03/22 09:12:51;;;;;;;15.27;11.10;;;11.20;99.90;;;;;;5075493;28;20638;-80
2022/03/22 09:15:18;;;;;;;13.33;10.60;;;11.30;99.90;;;;;;5067600;28;20227;-79
2022/03/22 09:17:44;;;;;;;15.60;10.60;;;11.50;99.90;;;;;;5065873;28;20235;-79
2022/03/22 09:20:14;;;;;;;15.77;10.80;;;11.60;99.90;;;;;;5066772;28;20196;-78
2022/03/22 09:22:40;;;;;;;13.57;10.93;;;11.50;98.00;;;;;;5065459;28;20189;-79
2022/03/22 09:25:07;;;;;;;14.27;11.00;;;11.60;98.80;;;;;;5063458;28;20197;-79
2022/03/22 09:27:33;;;;;;;18.23;11.03;;;11.60;99.90;;;;;;5077102;28;20438;-79
2022/03/22 09:29:58;;;;;;;14.33;10.17;;;11.80;99.90;;;;;;5073845;28;20472;-78
2022/03/22 09:32:24;;;;;;;17.57;11.30;;;11.90;99.30;;;;;;5076806;28;20631;-79
2022/03/22 09:34:50;;;;;;;15.40;11.90;;;12.00;99.40;;;;;;5067388;28;20727;-77
2022/03/22 09:37:16;;;;;;;15.10;11.57;;;12.20;99.70;;;;;;5066904;28;20189;-79
2022/03/22 09:39:43;;;;;;;13.52;11.27;;;12.20;99.30;;;;;;5066165;28;20216;-78
2022/03/22 09:42:09;;;;;;;14.60;11.35;;;12.30;98.90;;;;;;5067066;28;20191;-80
2022/03/22 09:44:35;;;;;;;14.65;10.20;;;12.30;98.60;;;;;;5062987;28;20238;-80
2022/03/22 09:47:03;;;;;;;15.65;11.10;;;12.50;98.00;;;;;;5065515;28;20181;-81
2022/03/22 09:49:30;;;;;;;14.20;11.02;;;12.60;96.10;;;;;;5069335;28;20235;-81
2022/03/22 09:51:57;;;;;;;14.02;10.73;;;12.60;96.50;;;;;;5076448;28;20177;-79
2022/03/22 09:54:23;;;;;;;12.00;9.98;;;12.70;96.70;;;;;;5066729;28;20207;-80
2022/03/22 09:56:50;;;;;;;16.10;11.10;;;12.90;95.80;;;;;;5065835;28;20181;-83
2022/03/22 09:59:17;;;;;;;13.27;11.07;;;13.00;95.20;;;;;;5064013;28;20242;-83
2022/03/22 10:01:44;;;;;;;15.25;10.57;;;13.20;94.10;;;;;;5064384;28;20192;-82
2022/03/22 10:04:14;;;;;;;14.13;10.40;;;13.10;92.30;;;;;;5070742;28;20204;-78
2022/03/22 10:07:03;;;;;;;13.95;10.70;;;13.10;92.30;;;;;;5078330;28;20272;-80
2022/03/22 10:09:29;;;;;;;13.30;10.38;;;13.30;93.10;;;;;;5067901;28;20232;-80
2022/03/22 10:11:55;;;;;;;13.10;9.82;;;13.50;92.80;;;;;;5077082;28;20546;-81
2022/03/22 10:14:33;;;;;;;11.60;9.90;;;13.70;91.70;;;;;;5063435;28;20198;-82
2022/03/22 10:17:06;;;;;;;12.95;10.60;;;13.90;90.60;;;;;;5070704;28;20192;-80
2022/03/22 10:19:32;;;;;;;13.98;10.20;;;13.80;90.70;;;;;;5064646;28;20209;-80
2022/03/22 10:22:04;;;;;;;13.77;10.20;;;14.00;86.90;;;;;;5062802;28;20247;-83
2022/03/22 10:24:30;;;;;;;13.88;10.77;;;13.90;84.70;;;;;;5076016;28;20209;-81
2022/03/22 10:26:55;;;;;;;15.63;10.73;;;14.10;84.80;;;;;;5063892;28;20659;-81
2022/03/22 10:29:21;;;;;;;14.98;10.63;;;14.20;83.50;;;;;;5063370;28;20207;-79
2022/03/22 10:31:47;;;;;;;14.57;10.27;;;14.30;83.10;;;;;;5076328;28;20199;-81
2022/03/22 10:34:15;;;;;;;13.88;10.48;;;14.40;83.50;;;;;;5063950;28;20240;-82
2022/03/22 10:36:42;;;;;;;14.15;10.50;;;14.60;83.30;;;;;;5063925;28;20272;-80
2022/03/22 10:39:10;;;;;;;12.27;10.18;;;14.80;79.80;;;;;;5065892;28;20559;-78
2022/03/22 10:41:47;;;;;;;12.85;10.05;;;14.80;75.30;;;;;;5071460;28;20428;-81
2022/03/22 10:44:14;;;;;;;12.95;9.88;;;15.00;76.10;;;;;;5063413;28;21210;-81
2022/03/22 10:46:44;;;;;;;14.82;10.55;;;14.80;74.30;;;;;;5080312;28;20184;-79
2022/03/22 10:49:12;;;;;;;13.20;10.40;;;15.00;75.10;;;;;;5066234;28;20192;-80
2022/03/22 10:51:44;;;;;;;13.02;10.13;;;15.20;74.00;;;;;;5073615;28;20231;-78
2022/03/22 10:54:12;;;;;;;15.32;9.95;;;15.30;74.10;;;;;;5063666;28;20201;-76
2022/03/22 10:56:50;;;;;;;13.52;10.52;;;15.40;72.80;;;;;;5078497;28;20204;-80
2022/03/22 10:59:18;;;;;;;15.80;10.75;;;15.50;70.60;;;;;;5076941;28;20609;-82
2022/03/22 11:01:47;;;;;;;11.77;9.95;;;15.40;71.30;;;;;;5081499;28;20189;-82
2022/03/22 11:04:17;;;;;;;14.13;10.43;;;15.40;70.00;;;;;;5080976;28;20239;-81
2022/03/22 11:06:47;;;;;;;13.65;10.77;;;15.50;71.30;;;;;;5075860;28;20178;-82
2022/03/22 11:09:14;;;;;;;16.85;10.50;;;15.50;71.20;;;;;;5078763;28;20215;-82
2022/03/22 11:11:40;;;;;;;15.70;10.82;;;15.60;69.00;;;;;;5078912;28;20291;-82
2022/03/22 11:14:07;;;;;;;13.35;10.38;;;15.70;68.30;;;;;;5075144;28;20575;-82
2022/03/22 11:16:34;;;;;;;13.02;10.15;;;15.80;66.20;;;;;;5065728;28;20264;-80
2022/03/22 11:19:02;;;;;;;13.15;10.35;;;16.00;67.60;;;;;;5069364;28;20188;-82
2022/03/22 11:21:29;;;;;;;14.82;10.43;;;16.00;64.30;;;;;;5087311;28;20284;-81
2022/03/22 11:24:04;;;;;;;12.23;9.75;;;15.90;63.10;;;;;;5079171;28;20224;-81
2022/03/22 11:26:30;;;;;;;12.35;9.85;;;16.10;62.40;;;;;;5070345;28;20201;-80
2022/03/22 11:28:55;;;;;;;13.40;9.70;;;16.30;64.50;;;;;;5075142;28;20466;-82
2022/03/22 11:31:26;;;;;;;15.75;10.18;;;16.30;59.80;;;;;;5063668;28;20267;-80
2022/03/22 11:34:11;;;;;;;11.90;9.73;;;16.40;61.60;;;;;;5060020;28;20205;-79
2022/03/22 11:36:41;;;;;;;12.55;9.40;;;16.40;60.50;;;;;;5061870;28;20456;-81
2022/03/22 11:39:08;;;;;;;11.25;9.23;;;16.40;59.50;;;;;;5060901;28;20186;-80
2022/03/22 11:44:35;;;;;;;12.55;8.80;;;16.00;57.50;;;;;;5069975;28;20229;-80
2022/03/22 11:47:11;;;;;;;9.13;7.60;;;16.20;59.40;;;;;;5069926;28;20338;-81
2022/03/22 11:50:01;;;;;;;13.38;8.65;;;16.40;58.00;;;;;;5067136;28;20347;-81
2022/03/22 11:52:39;;;;;;;10.30;8.43;;;16.50;55.50;;;;;;5061221;28;20173;-80
2022/03/22 11:55:06;;;;;;;12.65;7.70;;;16.50;55.30;;;;;;5069434;28;20340;-82
2022/03/22 11:57:47;;;;;;;10.30;7.70;;;16.60;54.70;;;;;;5062491;28;20722;-81
2022/03/22 12:00:22;;;;;;;12.50;7.13;;;16.80;52.60;;;;;;5057563;28;20223;-82
2022/03/22 12:02:53;;;;;;;9.55;7.10;;;16.80;52.10;;;;;;5061358;28;20188;-81
2022/03/22 12:05:22;;;;;;;10.48;6.65;;;16.90;51.20;;;;;;5050242;28;20326;-81
2022/03/22 12:07:49;;;;;;;9.15;6.60;;;17.00;48.20;;;;;;5064701;28;20238;-79
2022/03/22 12:10:17;;;;;;;7.95;6.30;;;16.80;47.50;;;;;;5061174;28;20201;-79
2022/03/22 12:12:49;;;;;;;7.90;5.80;;;16.80;47.30;;;;;;5060047;28;20269;-79
2022/03/22 12:15:18;;;;;;;8.35;5.97;;;17.00;47.70;;;;;;5063211;28;20173;-80
2022/03/22 12:17:44;;;;;;;8.20;6.22;;;16.90;45.80;;;;;;5063310;28;20238;-81
2022/03/22 12:20:12;;;;;;;9.57;6.75;;;17.00;47.90;;;;;;5076229;28;20186;-80
2022/03/22 12:22:49;;;;;;;11.00;7.75;;;17.10;49.00;;;;;;5070582;28;20662;-80
2022/03/22 12:25:17;;;;;;;10.55;7.55;;;17.10;46.90;;;;;;5064016;28;20204;-81
2022/03/22 12:28:01;;;;;;;10.15;7.90;;;17.00;49.50;;;;;;5066715;28;20656;-79
2022/03/22 12:30:32;;;;;;;11.48;7.57;;;17.20;50.80;;;;;;5078456;28;20242;-80
2022/03/22 12:33:00;;;;;;;10.45;8.13;;;17.20;49.50;;;;;;5071168;28;20212;-78
2022/03/22 12:35:26;;;;;;;12.57;8.10;;;17.10;48.50;;;;;;5070363;28;20184;-80
2022/03/22 12:37:52;;;;;;;9.55;7.60;;;16.80;49.70;;;;;;5081746;28;20181;-80
2022/03/22 12:40:20;;;;;;;10.48;8.30;;;16.90;50.60;;;;;;5084482;28;20177;-80
2022/03/22 12:42:47;;;;;;;10.68;8.63;;;16.90;50.80;;;;;;5080817;28;20204;-80
2022/03/22 12:45:14;;;;;;;11.73;8.98;;;16.90;51.70;;;;;;5072525;28;20184;-79
2022/03/22 12:47:41;;;;;;;12.80;8.82;;;16.90;51.70;;;;;;5070931;28;20189;-79
2022/03/22 12:50:12;;;;;;;11.80;9.38;;;16.90;51.80;;;;;;5071463;28;20205;-78
2022/03/22 12:52:40;;;;;;;10.90;9.20;;;16.80;51.50;;;;;;5077850;28;20196;-79
2022/03/22 12:55:07;;;;;;;14.95;9.82;;;17.00;54.00;;;;;;5080765;28;20185;-79
2022/03/22 12:57:34;;;;;;;12.48;9.15;;;17.10;52.40;;;;;;5069013;28;20522;-79
2022/03/22 13:00:00;;;;;;;13.70;9.02;;;16.90;53.30;;;;;;5066837;28;20189;-78
2022/03/22 13:02:26;;;;;;;10.57;8.80;;;17.00;52.10;;;;;;5068250;28;20242;-79
2022/03/22 13:04:53;;;;;;;10.88;9.18;;;17.10;52.60;;;;;;5065919;28;20508;-78
2022/03/22 13:07:19;;;;;;;12.70;9.35;;;17.20;52.40;;;;;;5078234;28;20185;-80